MV Cajun — WDH2458 — position and weather

sailwx.info

Track history (hours):
 
Tides and Currents Weather Stations Pressure Air Temp Water Temp Dewpoint Dewpoint Depression Visibility Wind Speed Wind Dir Waves Ship Positions

MV Cajun

Owner: M/V Cajun 1 LLC, new orleans, LA. More information available from US FCC via Universal Licensing System and Coast Guard Vessel Documentation Center.

Last reported at 2018-Apr-21 12:31 UTC. Time now 2018-Apr-21 17:15 UTC.
Position N 29°57' W 092°51'.

Length 24 m; draft 3 m.

Type: . MMSI: 367597820.

Date/timePositionNaut miles runAvg speedWind from/ knotsBaromVisibWave heightAir tempDewpointWater temp
2018-Apr-21 12:31N 29°57' W 092°51'0 5.7
2018-Apr-21 12:30N 29°57' W 092°52'3 5.7
2018-Apr-21 11:59N 29°56' W 092°55'3 5.5
2018-Apr-21 11:27N 29°56' W 092°58'3 5.6
2018-Apr-21 10:58N 29°56' W 093°01'3 5.3
2018-Apr-21 10:28N 29°56' W 093°04'3 5.5
2018-Apr-21 10:00N 29°56' W 093°07'2 5.0
2018-Apr-21 09:30N 29°57' W 093°10'2 4.2
2018-Apr-21 09:01N 29°58' W 093°12'3 5.6
2018-Apr-21 08:31N 30°00' W 093°14'2 5.0
2018-Apr-21 08:01N 30°02' W 093°15'3 5.1
2018-Apr-21 07:30N 30°05' W 093°17'1 2.9
2018-Apr-21 07:01N 30°05' W 093°18'0 0.8
2018-Apr-21 06:30N 30°06' W 093°18'0 0.0
2018-Apr-21 06:01N 30°06' W 093°18'0 0.1
2018-Apr-21 05:31N 30°06' W 093°18'0 0.0
2018-Apr-21 04:50N 30°06' W 093°18'0 0.5
2018-Apr-21 04:31N 30°06' W 093°18'1 1.5
2018-Apr-21 04:00N 30°06' W 093°19'0 0.0
2018-Apr-21 03:30N 30°06' W 093°19'0 0.0
2018-Apr-21 03:01N 30°06' W 093°19'0 0.0
2018-Apr-21 02:31N 30°06' W 093°19'1 1.4
2018-Apr-21 02:00N 30°05' W 093°20'2 4.8
2018-Apr-21 01:31N 30°04' W 093°22'3 5.9
2018-Apr-21 01:01N 30°04' W 093°25'3 6.2
2018-Apr-21 00:30N 30°04' W 093°29'3 6.2
2018-Apr-21 00:01N 30°04' W 093°32'3 6.3
2018-Apr-20 23:30N 30°04' W 093°36'3 6.6
2018-Apr-20 23:00N 30°04' W 093°40'3 6.4
2018-Apr-20 22:30N 30°03' W 093°43'3 6.1
2018-Apr-20 22:01N 30°01' W 093°46'3 6.7
2018-Apr-20 21:30N 29°59' W 093°49'3 6.2
2018-Apr-20 21:00N 29°57' W 093°52'4 7.6
2018-Apr-20 20:31N 29°54' W 093°54'4 7.7
2018-Apr-20 20:00N 29°51' W 093°57'3 5.5
2018-Apr-20 19:30N 29°49' W 093°59'3 5.6
2018-Apr-20 19:01N 29°47' W 094°01'3 5.4
2018-Apr-20 18:30N 29°45' W 094°04'3 5.4
2018-Apr-20 18:00N 29°44' W 094°06'3 5.4
2018-Apr-20 17:30N 29°42' W 094°09'2 3.7
2018-Apr-20 17:00N 29°41' W 094°11'2 3.3
2018-Apr-20 16:31N 29°41' W 094°12'3 5.1
2018-Apr-20 16:00N 29°39' W 094°15'3 4.9
2018-Apr-20 15:29N 29°38' W 094°18'3 5.0
2018-Apr-20 14:58N 29°37' W 094°20'3 4.9
2018-Apr-20 14:24N 29°36' W 094°23'2 3.8
2018-Apr-20 13:58N 29°35' W 094°25'5 4.8
2018-Apr-20 12:53N 29°31' W 094°29'2 5.0
2018-Apr-20 12:30N 29°31' W 094°31'1 2.2
2018-Apr-20 12:01N 29°30' W 094°32'6 5.7
2018-Apr-20 10:57N 29°28' W 094°39'10 4.5
2018-Apr-20 08:46N 29°24' W 094°49'2 8.3
2018-Apr-20 08:30N 29°26' W 094°50'4 8.9
2018-Apr-20 08:01N 29°30' W 094°52'4 8.3
2018-Apr-20 07:30N 29°34' W 094°55'3 6.9
2018-Apr-20 07:00N 29°36' W 094°57'4 7.6
2018-Apr-20 06:30N 29°40' W 094°59'4 7.3
2018-Apr-20 06:00N 29°43' W 095°01'4 6.0
2018-Apr-20 05:23N 29°45' W 095°04'1 3.7
2018-Apr-20 04:59N 29°47' W 095°04'0 0.0
2018-Apr-20 04:30N 29°47' W 095°04'0 0.0
2018-Apr-20 04:00N 29°47' W 095°04'0 0.9
2018-Apr-20 03:29N 29°47' W 095°05'1 1.4
2018-Apr-20 02:52N 29°46' W 095°05'1 1.8
2018-Apr-20 02:27N 29°46' W 095°05'1 2.0
2018-Apr-20 01:50N 29°46' W 095°06'0 0.9
2018-Apr-20 01:25N 29°45' W 095°06'0 0.0
2018-Apr-20 00:47N 29°45' W 095°06'0 0.0
2018-Apr-20 00:31N 29°45' W 095°06'0 0.0
2018-Apr-20 00:00N 29°45' W 095°06'0 0.0
2018-Apr-19 23:30N 29°45' W 095°06'0 0.0
2018-Apr-19 23:00N 29°45' W 095°06'2 4.1
2018-Apr-19 22:31N 29°47' W 095°04'0 0.6
2018-Apr-19 21:59N 29°47' W 095°04'0 0.0
2018-Apr-19 21:30N 29°47' W 095°04'0 0.0
2018-Apr-19 21:00N 29°47' W 095°04'0 0.0
2018-Apr-19 20:31N 29°47' W 095°04'0 0.3
2018-Apr-19 20:00N 29°47' W 095°04'0 0.2
2018-Apr-19 19:19N 29°47' W 095°04'0 0.0
2018-Apr-19 18:53N 29°47' W 095°04'0 0.0
2018-Apr-19 18:11N 29°47' W 095°04'0 0.0
2018-Apr-19 17:58N 29°47' W 095°04'0 0.0
2018-Apr-19 17:28N 29°47' W 095°04'0 0.0
2018-Apr-19 16:46N 29°47' W 095°04'0 0.0
2018-Apr-19 16:16N 29°47' W 095°04'0 0.0
2018-Apr-19 15:58N 29°47' W 095°04'0 0.0
2018-Apr-19 15:28N 29°47' W 095°04'0 0.0
2018-Apr-19 15:00N 29°47' W 095°04'0 0.0
2018-Apr-19 14:19N 29°47' W 095°04'0 0.0
2018-Apr-19 13:19N 29°47' W 095°04'0 0.0
2018-Apr-19 12:52N 29°47' W 095°04'0 0.0
2018-Apr-19 00:29N 29°47' W 095°04'0 0.0
2018-Apr-19 00:01N 29°47' W 095°04'0 0.0
2018-Apr-18 23:26N 29°47' W 095°04'0 0.0
2018-Apr-18 22:58N 29°47' W 095°04'0 0.0
2018-Apr-18 21:02N 29°47' W 095°04'0 0.0
2018-Apr-18 20:59N 29°47' W 095°04'0 0.0
2018-Apr-18 20:26N 29°47' W 095°04'0 0.0
2018-Apr-18 20:01N 29°47' W 095°04'0 0.0
2018-Apr-18 19:28N 29°47' W 095°04'0 0.0
2018-Apr-18 18:59N 29°47' W 095°04'0 0.0
2018-Apr-18 18:30N 29°47' W 095°04'0 0.0
2018-Apr-18 18:00N 29°47' W 095°04'0 0.0
2018-Apr-18 17:31N 29°47' W 095°04'0 0.0
2018-Apr-18 17:01N 29°47' W 095°04'0 0.0
2018-Apr-18 16:31N 29°47' W 095°04'0 0.0
2018-Apr-18 16:00N 29°47' W 095°04'0 0.0
2018-Apr-18 15:31N 29°47' W 095°04'0 0.0
2018-Apr-18 15:00N 29°47' W 095°04'0 0.0
2018-Apr-18 14:30N 29°47' W 095°04'0 0.3
2018-Apr-18 14:00N 29°47' W 095°04'0 0.0
2018-Apr-18 13:29N 29°47' W 095°04'0 0.0
2018-Apr-18 12:59N 29°47' W 095°04'0 0.0
2018-Apr-18 12:15N 29°47' W 095°04'0 0.0
2018-Apr-18 11:19N 29°47' W 095°04'0 0.0
2018-Apr-18 10:33N 29°47' W 095°04'0 0.0
2018-Apr-18 10:18N 29°47' W 095°04'0 0.0
2018-Apr-18 09:33N 29°47' W 095°04'0 0.0
2018-Apr-18 08:14N 29°47' W 095°04'0 0.0
2018-Apr-18 08:00N 29°47' W 095°04'0 0.0
2018-Apr-18 07:27N 29°47' W 095°04'0 0.0
2018-Apr-18 07:00N 29°47' W 095°04'1 0.4
2018-Apr-18 03:50N 29°46' W 095°05'2 3.0
2018-Apr-18 03:11N 29°45' W 095°06'0 0.1
2018-Apr-18 02:59N 29°45' W 095°06'0 0.0
2018-Apr-18 02:30N 29°45' W 095°06'0 0.0
2018-Apr-18 01:57N 29°45' W 095°06'0 0.0
2018-Apr-18 01:30N 29°45' W 095°06'0 0.0
2018-Apr-18 00:59N 29°45' W 095°06'0 0.0
2018-Apr-17 19:31N 29°45' W 095°06'0 0.0
2018-Apr-17 19:00N 29°45' W 095°06'0 0.0
2018-Apr-17 18:07N 29°45' W 095°06'0 0.0
2018-Apr-17 17:56N 29°45' W 095°06'0 0.0
2018-Apr-17 16:23N 29°45' W 095°06'0 0.0
2018-Apr-17 13:33N 29°45' W 095°06'0 0.0
2018-Apr-17 13:29N 29°45' W 095°06'0 0.0
2018-Apr-17 10:23N 29°45' W 095°06'0 0.0
2018-Apr-17 09:55N 29°45' W 095°06'0 0.0
2018-Apr-17 09:28N 29°45' W 095°06'0 0.0
2018-Apr-17 08:59N 29°45' W 095°06'0 0.0
2018-Apr-17 08:23N 29°45' W 095°06'0 0.0
2018-Apr-17 08:00N 29°45' W 095°06'0 0.0
2018-Apr-17 07:07N 29°45' W 095°06'0 0.4
2018-Apr-17 07:00N 29°45' W 095°06'0 0.0
2018-Apr-17 00:47N 29°45' W 095°06'0 0.0
2018-Apr-17 00:30N 29°45' W 095°06'0 0.0
2018-Apr-17 00:01N 29°45' W 095°06'0 0.0
2018-Apr-16 23:29N 29°45' W 095°06'0 0.0
2018-Apr-16 23:01N 29°45' W 095°06'0 0.0
2018-Apr-16 22:30N 29°45' W 095°06'0 0.0
2018-Apr-16 22:01N 29°45' W 095°06'0 0.0
2018-Apr-16 21:30N 29°45' W 095°06'0 0.0
2018-Apr-16 20:58N 29°45' W 095°06'0 0.0
2018-Apr-16 15:41N 29°45' W 095°06'0 0.9
2018-Apr-16 15:30N 29°45' W 095°06'0 0.1
2018-Apr-16 12:34N 29°45' W 095°06'0 3.1
2018-Apr-16 12:27N 29°45' W 095°06'2 1.4
2018-Apr-16 10:45N 29°47' W 095°04'0 0.0
2018-Apr-16 09:54N 29°47' W 095°04'1 2.4
2018-Apr-16 09:30N 29°46' W 095°05'1 0.0
2018-Apr-15 10:23N 29°46' W 095°06'0 0.0
2018-Apr-15 09:52N 29°46' W 095°06'0 0.0
2018-Apr-15 01:57N 29°46' W 095°05'1 1.6
2018-Apr-15 01:16N 29°47' W 095°05'1 3.9
2018-Apr-15 01:00N 29°46' W 095°05'3 5.5
2018-Apr-15 00:30N 29°44' W 095°02'2 4.8
2018-Apr-15 00:00N 29°42' W 095°00'3 5.4
2018-Apr-14 23:30N 29°40' W 094°58'2 4.6
2018-Apr-14 23:00N 29°38' W 094°58'2 3.9
2018-Apr-14 22:30N 29°37' W 094°60'2 3.4
2018-Apr-14 22:00N 29°37' W 095°01'0 0.0
2018-Apr-14 21:30N 29°37' W 095°01'0 0.1
2018-Apr-14 21:00N 29°37' W 095°01'0 0.3
2018-Apr-14 20:30N 29°37' W 095°02'0 0.0
2018-Apr-14 20:00N 29°37' W 095°02'0 0.0
2018-Apr-14 19:30N 29°37' W 095°02'0 0.0
2018-Apr-14 19:00N 29°37' W 095°02'0 0.0
2018-Apr-14 18:30N 29°37' W 095°02'0 0.0
2018-Apr-14 18:00N 29°37' W 095°02'0 0.0
2018-Apr-14 17:30N 29°37' W 095°02'0 0.1
2018-Apr-14 16:59N 29°37' W 095°01'0 0.1
2018-Apr-14 16:30N 29°37' W 095°01'0 0.1
2018-Apr-14 16:00N 29°37' W 095°02'0 0.0
2018-Apr-14 15:30N 29°37' W 095°02'0 0.0
2018-Apr-14 15:00N 29°37' W 095°02'0 0.0
2018-Apr-14 14:30N 29°37' W 095°02'0 0.0
2018-Apr-14 14:00N 29°37' W 095°02'0 0.0
2018-Apr-14 13:30N 29°37' W 095°02'0 0.0
2018-Apr-14 13:00N 29°37' W 095°02'0 0.0
2018-Apr-14 12:30N 29°37' W 095°02'0 0.0
2018-Apr-14 12:00N 29°37' W 095°02'0 0.0
2018-Apr-14 11:30N 29°37' W 095°02'0 0.0
2018-Apr-14 11:00N 29°37' W 095°02'0 0.0
2018-Apr-14 10:30N 29°37' W 095°02'0 0.0
2018-Apr-14 10:00N 29°37' W 095°02'0 0.0
2018-Apr-14 09:30N 29°37' W 095°02'0 0.0
2018-Apr-14 09:00N 29°37' W 095°02'0 0.0
2018-Apr-14 08:30N 29°37' W 095°02'0 0.0
2018-Apr-14 08:00N 29°37' W 095°02'0 0.0
2018-Apr-14 07:30N 29°37' W 095°02'0 0.0
2018-Apr-14 07:00N 29°37' W 095°02'0 0.0
2018-Apr-14 06:30N 29°37' W 095°02'0 0.0
2018-Apr-14 06:00N 29°37' W 095°02'0 0.0
2018-Apr-14 05:30N 29°37' W 095°02'0 0.0
2018-Apr-14 05:00N 29°37' W 095°02'0 0.0
2018-Apr-14 04:30N 29°37' W 095°02'0 0.0
2018-Apr-14 04:00N 29°37' W 095°02'0 0.0
2018-Apr-14 03:30N 29°37' W 095°02'0 0.0
2018-Apr-14 03:00N 29°37' W 095°02'0 0.0
2018-Apr-14 02:30N 29°37' W 095°02'0 0.0
2018-Apr-14 02:00N 29°37' W 095°02'0 0.0
2018-Apr-14 01:30N 29°37' W 095°02'0 0.0
2018-Apr-14 01:00N 29°37' W 095°02'0 0.0
2018-Apr-14 00:30N 29°37' W 095°02'0 0.0
2018-Apr-14 00:00N 29°37' W 095°02'0 0.0
2018-Apr-13 23:30N 29°37' W 095°02'0 0.0
2018-Apr-13 23:00N 29°37' W 095°02'0 0.0
2018-Apr-13 22:30N 29°37' W 095°02'0 0.0
2018-Apr-13 22:00N 29°37' W 095°02'0 0.0
2018-Apr-13 21:30N 29°37' W 095°02'0 0.0
2018-Apr-13 21:00N 29°37' W 095°02'0 0.0
2018-Apr-13 20:30N 29°37' W 095°02'0 0.0
2018-Apr-13 20:00N 29°37' W 095°02'0 0.0
2018-Apr-13 19:30N 29°37' W 095°02'0 0.0
2018-Apr-13 19:00N 29°37' W 095°02'0 0.0
2018-Apr-13 18:30N 29°37' W 095°02'0 0.0
2018-Apr-13 18:00N 29°37' W 095°02'0 0.0
2018-Apr-13 17:30N 29°37' W 095°02'0 0.0
2018-Apr-13 17:00N 29°37' W 095°02'0 0.0
2018-Apr-13 16:30N 29°37' W 095°02'0 0.0
2018-Apr-13 16:00N 29°37' W 095°02'0 0.0
2018-Apr-13 15:30N 29°37' W 095°02'0 0.0
2018-Apr-13 15:00N 29°37' W 095°02'0 0.0
2018-Apr-13 14:30N 29°37' W 095°02'0 0.0
2018-Apr-13 14:00N 29°37' W 095°02'0 0.0
2018-Apr-13 13:30N 29°37' W 095°02'0 0.0
2018-Apr-13 13:00N 29°37' W 095°02'0 0.0
2018-Apr-13 12:30N 29°37' W 095°02'0 0.0
2018-Apr-13 12:00N 29°37' W 095°02'0 0.0
2018-Apr-13 11:30N 29°37' W 095°02'0 0.0
2018-Apr-13 11:00N 29°37' W 095°02'0 0.0
2018-Apr-13 10:30N 29°37' W 095°02'0 0.0
2018-Apr-13 10:00N 29°37' W 095°02'0 0.3
2018-Apr-13 09:30N 29°37' W 095°01'0 0.3
2018-Apr-13 09:00N 29°37' W 095°01'0 0.1
2018-Apr-13 08:30N 29°37' W 095°02'0 0.0
2018-Apr-13 08:00N 29°37' W 095°02'0 0.0
2018-Apr-13 07:30N 29°37' W 095°02'0 0.0
2018-Apr-13 07:00N 29°37' W 095°02'0 0.0
2018-Apr-13 06:30N 29°37' W 095°02'0 0.0
2018-Apr-13 06:00N 29°37' W 095°02'0 0.1
2018-Apr-13 05:29N 29°37' W 095°01'0 0.1
2018-Apr-13 05:00N 29°37' W 095°01'0 0.2
2018-Apr-13 04:30N 29°37' W 095°01'0 0.2
2018-Apr-13 04:00N 29°37' W 095°01'0 0.0
2018-Apr-13 03:30N 29°37' W 095°01'0 0.0
2018-Apr-13 03:00N 29°37' W 095°01'0 0.0
2018-Apr-13 02:30N 29°37' W 095°01'0 0.0
2018-Apr-13 02:00N 29°37' W 095°01'0 0.0
2018-Apr-13 01:30N 29°37' W 095°01'0 0.0
2018-Apr-13 01:00N 29°37' W 095°01'0 0.0
2018-Apr-13 00:30N 29°37' W 095°01'0 0.0
2018-Apr-13 00:00N 29°37' W 095°01'0 0.0
2018-Apr-12 23:30N 29°37' W 095°01'0 0.0
2018-Apr-12 23:00N 29°37' W 095°01'0 0.0
2018-Apr-12 22:30N 29°37' W 095°01'0 0.0
2018-Apr-12 22:00N 29°37' W 095°01'0 0.0
2018-Apr-12 21:30N 29°37' W 095°01'0 0.0
2018-Apr-12 21:00N 29°37' W 095°01'0 0.0
2018-Apr-12 20:30N 29°37' W 095°01'0 0.0
2018-Apr-12 20:00N 29°37' W 095°01'0 0.0
2018-Apr-12 19:30N 29°37' W 095°01'0 0.0
2018-Apr-12 19:00N 29°37' W 095°01'0 0.0
2018-Apr-12 18:30N 29°37' W 095°01'0 0.0
2018-Apr-12 18:00N 29°37' W 095°01'0 0.0
2018-Apr-12 17:30N 29°37' W 095°01'0 0.0
2018-Apr-12 17:00N 29°37' W 095°01'0 0.0
2018-Apr-12 16:30N 29°37' W 095°01'0 0.0
2018-Apr-12 16:00N 29°37' W 095°01'0 0.0
2018-Apr-12 15:30N 29°37' W 095°01'0 0.0
2018-Apr-12 15:00N 29°37' W 095°01'0 0.0
2018-Apr-12 14:30N 29°37' W 095°01'0 0.0
2018-Apr-12 14:00N 29°37' W 095°01'0 0.0
2018-Apr-12 13:30N 29°37' W 095°01'0 0.0
2018-Apr-12 13:00N 29°37' W 095°01'0 0.0
2018-Apr-12 12:30N 29°37' W 095°01'0 0.0
2018-Apr-12 12:00N 29°37' W 095°01'0 0.0
2018-Apr-12 11:30N 29°37' W 095°01'0 0.0
2018-Apr-12 11:00N 29°37' W 095°01'0 0.0
2018-Apr-12 10:30N 29°37' W 095°01'0 0.4
2018-Apr-12 10:00N 29°37' W 095°01'0 0.6
2018-Apr-12 09:30N 29°37' W 095°01'0 0.2
2018-Apr-12 09:00N 29°36' W 095°01'0 0.8
2018-Apr-12 08:30N 29°37' W 095°01'0 0.0
2018-Apr-12 08:00N 29°37' W 095°02'0 0.0
2018-Apr-12 07:30N 29°37' W 095°01'0 0.0
2018-Apr-12 07:00N 29°37' W 095°01'0 0.0
2018-Apr-12 06:30N 29°37' W 095°02'0 0.0
2018-Apr-12 06:00N 29°37' W 095°02'0 0.0
2018-Apr-12 05:30N 29°37' W 095°01'0 0.0
2018-Apr-12 05:00N 29°37' W 095°01'0 0.0
2018-Apr-12 04:30N 29°37' W 095°01'0 0.0
2018-Apr-12 04:00N 29°37' W 095°01'0 0.0
2018-Apr-12 03:30N 29°37' W 095°01'0 0.2
2018-Apr-12 03:00N 29°37' W 095°01'0 0.4
2018-Apr-12 02:30N 29°37' W 095°01'2 4.7
2018-Apr-12 02:00N 29°37' W 094°59'3 5.7
2018-Apr-12 01:30N 29°40' W 094°58'3 6.1
2018-Apr-12 01:00N 29°42' W 095°01'2 4.8
2018-Apr-12 00:30N 29°44' W 095°03'3 5.2
2018-Apr-12 00:00N 29°46' W 095°05'2 2.2
2018-Apr-11 23:18N 29°47' W 095°04'1 1.9
2018-Apr-11 23:00N 29°47' W 095°05'0 0.0
2018-Apr-11 22:30N 29°47' W 095°05'0 0.0
2018-Apr-11 22:00N 29°47' W 095°05'1 1.6
2018-Apr-11 21:30N 29°46' W 095°05'1 1.9
2018-Apr-11 20:56N 29°45' W 095°06'1 3.3
2018-Apr-11 20:30N 29°47' W 095°05'0 0.7
2018-Apr-11 20:00N 29°47' W 095°04'0 0.2
2018-Apr-11 19:30N 29°47' W 095°05'0 0.0
2018-Apr-11 19:00N 29°47' W 095°05'0 0.0
2018-Apr-11 18:30N 29°47' W 095°05'0 0.2
2018-Apr-11 18:00N 29°47' W 095°04'0 0.1
2018-Apr-11 17:30N 29°47' W 095°04'0 0.0
2018-Apr-11 17:00N 29°47' W 095°04'0 0.0
2018-Apr-11 16:30N 29°47' W 095°04'0 0.1
2018-Apr-11 16:00N 29°47' W 095°04'0 0.0
2018-Apr-11 15:31N 29°47' W 095°04'0 0.0
2018-Apr-11 15:00N 29°47' W 095°04'0 0.0
2018-Apr-11 14:30N 29°47' W 095°04'0 0.0
2018-Apr-11 13:59N 29°47' W 095°04'0 0.0
2018-Apr-11 13:30N 29°47' W 095°04'0 0.0
2018-Apr-11 12:59N 29°47' W 095°04'  
Track history (hours):
 
Tides and Currents Weather Stations Pressure Air Temp Water Temp Dewpoint Dewpoint Depression Visibility Wind Speed Wind Dir Waves Ship Positions

MV Cajun

Owner: M/V Cajun 1 LLC, new orleans, LA. More information available from US FCC via Universal Licensing System and Coast Guard Vessel Documentation Center.

Last reported at 2018-Apr-21 12:31 UTC. Time now 2018-Apr-21 17:15 UTC.
Position N 29°57' W 092°51'.

Length 24 m; draft 3 m.

Type: . MMSI: 367597820.

Date/timePositionNaut miles runAvg speedWind from/ knotsBaromVisibWave heightAir tempDewpointWater temp
2018-Apr-21 12:31N 29°57' W 092°51'0 5.7
2018-Apr-21 12:30N 29°57' W 092°52'3 5.7
2018-Apr-21 11:59N 29°56' W 092°55'3 5.5
2018-Apr-21 11:27N 29°56' W 092°58'3 5.6
2018-Apr-21 10:58N 29°56' W 093°01'3 5.3
2018-Apr-21 10:28N 29°56' W 093°04'3 5.5
2018-Apr-21 10:00N 29°56' W 093°07'2 5.0
2018-Apr-21 09:30N 29°57' W 093°10'2 4.2
2018-Apr-21 09:01N 29°58' W 093°12'3 5.6
2018-Apr-21 08:31N 30°00' W 093°14'2 5.0
2018-Apr-21 08:01N 30°02' W 093°15'3 5.1
2018-Apr-21 07:30N 30°05' W 093°17'1 2.9
2018-Apr-21 07:01N 30°05' W 093°18'0 0.8
2018-Apr-21 06:30N 30°06' W 093°18'0 0.0
2018-Apr-21 06:01N 30°06' W 093°18'0 0.1
2018-Apr-21 05:31N 30°06' W 093°18'0 0.0
2018-Apr-21 04:50N 30°06' W 093°18'0 0.5
2018-Apr-21 04:31N 30°06' W 093°18'1 1.5
2018-Apr-21 04:00N 30°06' W 093°19'0 0.0
2018-Apr-21 03:30N 30°06' W 093°19'0 0.0
2018-Apr-21 03:01N 30°06' W 093°19'0 0.0
2018-Apr-21 02:31N 30°06' W 093°19'1 1.4
2018-Apr-21 02:00N 30°05' W 093°20'2 4.8
2018-Apr-21 01:31N 30°04' W 093°22'3 5.9
2018-Apr-21 01:01N 30°04' W 093°25'3 6.2
2018-Apr-21 00:30N 30°04' W 093°29'3 6.2
2018-Apr-21 00:01N 30°04' W 093°32'3 6.3
2018-Apr-20 23:30N 30°04' W 093°36'3 6.6
2018-Apr-20 23:00N 30°04' W 093°40'3 6.4
2018-Apr-20 22:30N 30°03' W 093°43'3 6.1
2018-Apr-20 22:01N 30°01' W 093°46'3 6.7
2018-Apr-20 21:30N 29°59' W 093°49'3 6.2
2018-Apr-20 21:00N 29°57' W 093°52'4 7.6
2018-Apr-20 20:31N 29°54' W 093°54'4 7.7
2018-Apr-20 20:00N 29°51' W 093°57'3 5.5
2018-Apr-20 19:30N 29°49' W 093°59'3 5.6
2018-Apr-20 19:01N 29°47' W 094°01'3 5.4
2018-Apr-20 18:30N 29°45' W 094°04'3 5.4
2018-Apr-20 18:00N 29°44' W 094°06'3 5.4
2018-Apr-20 17:30N 29°42' W 094°09'2 3.7
2018-Apr-20 17:00N 29°41' W 094°11'2 3.3
2018-Apr-20 16:31N 29°41' W 094°12'3 5.1
2018-Apr-20 16:00N 29°39' W 094°15'3 4.9
2018-Apr-20 15:29N 29°38' W 094°18'3 5.0
2018-Apr-20 14:58N 29°37' W 094°20'3 4.9
2018-Apr-20 14:24N 29°36' W 094°23'2 3.8
2018-Apr-20 13:58N 29°35' W 094°25'5 4.8
2018-Apr-20 12:53N 29°31' W 094°29'2 5.0
2018-Apr-20 12:30N 29°31' W 094°31'1 2.2
2018-Apr-20 12:01N 29°30' W 094°32'6 5.7
2018-Apr-20 10:57N 29°28' W 094°39'10 4.5
2018-Apr-20 08:46N 29°24' W 094°49'2 8.3
2018-Apr-20 08:30N 29°26' W 094°50'4 8.9
2018-Apr-20 08:01N 29°30' W 094°52'4 8.3
2018-Apr-20 07:30N 29°34' W 094°55'3 6.9
2018-Apr-20 07:00N 29°36' W 094°57'4 7.6
2018-Apr-20 06:30N 29°40' W 094°59'4 7.3
2018-Apr-20 06:00N 29°43' W 095°01'4 6.0
2018-Apr-20 05:23N 29°45' W 095°04'1 3.7
2018-Apr-20 04:59N 29°47' W 095°04'0 0.0
2018-Apr-20 04:30N 29°47' W 095°04'0 0.0
2018-Apr-20 04:00N 29°47' W 095°04'0 0.9
2018-Apr-20 03:29N 29°47' W 095°05'1 1.4
2018-Apr-20 02:52N 29°46' W 095°05'1 1.8
2018-Apr-20 02:27N 29°46' W 095°05'1 2.0
2018-Apr-20 01:50N 29°46' W 095°06'0 0.9
2018-Apr-20 01:25N 29°45' W 095°06'0 0.0
2018-Apr-20 00:47N 29°45' W 095°06'0 0.0
2018-Apr-20 00:31N 29°45' W 095°06'0 0.0
2018-Apr-20 00:00N 29°45' W 095°06'0 0.0
2018-Apr-19 23:30N 29°45' W 095°06'0 0.0
2018-Apr-19 23:00N 29°45' W 095°06'2 4.1
2018-Apr-19 22:31N 29°47' W 095°04'0 0.6
2018-Apr-19 21:59N 29°47' W 095°04'0 0.0
2018-Apr-19 21:30N 29°47' W 095°04'0 0.0
2018-Apr-19 21:00N 29°47' W 095°04'0 0.0
2018-Apr-19 20:31N 29°47' W 095°04'0 0.3
2018-Apr-19 20:00N 29°47' W 095°04'0 0.2
2018-Apr-19 19:19N 29°47' W 095°04'0 0.0
2018-Apr-19 18:53N 29°47' W 095°04'0 0.0
2018-Apr-19 18:11N 29°47' W 095°04'0 0.0
2018-Apr-19 17:58N 29°47' W 095°04'0 0.0
2018-Apr-19 17:28N 29°47' W 095°04'0 0.0
2018-Apr-19 16:46N 29°47' W 095°04'0 0.0
2018-Apr-19 16:16N 29°47' W 095°04'0 0.0
2018-Apr-19 15:58N 29°47' W 095°04'0 0.0
2018-Apr-19 15:28N 29°47' W 095°04'0 0.0
2018-Apr-19 15:00N 29°47' W 095°04'0 0.0
2018-Apr-19 14:19N 29°47' W 095°04'0 0.0
2018-Apr-19 13:19N 29°47' W 095°04'0 0.0
2018-Apr-19 12:52N 29°47' W 095°04'0 0.0
2018-Apr-19 00:29N 29°47' W 095°04'0 0.0
2018-Apr-19 00:01N 29°47' W 095°04'0 0.0
2018-Apr-18 23:26N 29°47' W 095°04'0 0.0
2018-Apr-18 22:58N 29°47' W 095°04'0 0.0
2018-Apr-18 21:02N 29°47' W 095°04'0 0.0
2018-Apr-18 20:59N 29°47' W 095°04'0 0.0
2018-Apr-18 20:26N 29°47' W 095°04'0 0.0
2018-Apr-18 20:01N 29°47' W 095°04'0 0.0
2018-Apr-18 19:28N 29°47' W 095°04'0 0.0
2018-Apr-18 18:59N 29°47' W 095°04'0 0.0
2018-Apr-18 18:30N 29°47' W 095°04'0 0.0
2018-Apr-18 18:00N 29°47' W 095°04'0 0.0
2018-Apr-18 17:31N 29°47' W 095°04'0 0.0
2018-Apr-18 17:01N 29°47' W 095°04'0 0.0
2018-Apr-18 16:31N 29°47' W 095°04'0 0.0
2018-Apr-18 16:00N 29°47' W 095°04'0 0.0
2018-Apr-18 15:31N 29°47' W 095°04'0 0.0
2018-Apr-18 15:00N 29°47' W 095°04'0 0.0
2018-Apr-18 14:30N 29°47' W 095°04'0 0.3
2018-Apr-18 14:00N 29°47' W 095°04'0 0.0
2018-Apr-18 13:29N 29°47' W 095°04'0 0.0
2018-Apr-18 12:59N 29°47' W 095°04'0 0.0
2018-Apr-18 12:15N 29°47' W 095°04'0 0.0
2018-Apr-18 11:19N 29°47' W 095°04'0 0.0
2018-Apr-18 10:33N 29°47' W 095°04'0 0.0
2018-Apr-18 10:18N 29°47' W 095°04'0 0.0
2018-Apr-18 09:33N 29°47' W 095°04'0 0.0
2018-Apr-18 08:14N 29°47' W 095°04'0 0.0
2018-Apr-18 08:00N 29°47' W 095°04'0 0.0
2018-Apr-18 07:27N 29°47' W 095°04'0 0.0
2018-Apr-18 07:00N 29°47' W 095°04'1 0.4
2018-Apr-18 03:50N 29°46' W 095°05'2 3.0
2018-Apr-18 03:11N 29°45' W 095°06'0 0.1
2018-Apr-18 02:59N 29°45' W 095°06'0 0.0
2018-Apr-18 02:30N 29°45' W 095°06'0 0.0
2018-Apr-18 01:57N 29°45' W 095°06'0 0.0
2018-Apr-18 01:30N 29°45' W 095°06'0 0.0
2018-Apr-18 00:59N 29°45' W 095°06'0 0.0
2018-Apr-17 19:31N 29°45' W 095°06'0 0.0
2018-Apr-17 19:00N 29°45' W 095°06'0 0.0
2018-Apr-17 18:07N 29°45' W 095°06'0 0.0
2018-Apr-17 17:56N 29°45' W 095°06'0 0.0
2018-Apr-17 16:23N 29°45' W 095°06'0 0.0
2018-Apr-17 13:33N 29°45' W 095°06'0 0.0
2018-Apr-17 13:29N 29°45' W 095°06'0 0.0
2018-Apr-17 10:23N 29°45' W 095°06'0 0.0
2018-Apr-17 09:55N 29°45' W 095°06'0 0.0
2018-Apr-17 09:28N 29°45' W 095°06'0 0.0
2018-Apr-17 08:59N 29°45' W 095°06'0 0.0
2018-Apr-17 08:23N 29°45' W 095°06'0 0.0
2018-Apr-17 08:00N 29°45' W 095°06'0 0.0
2018-Apr-17 07:07N 29°45' W 095°06'0 0.4
2018-Apr-17 07:00N 29°45' W 095°06'0 0.0
2018-Apr-17 00:47N 29°45' W 095°06'0 0.0
2018-Apr-17 00:30N 29°45' W 095°06'0 0.0
2018-Apr-17 00:01N 29°45' W 095°06'0 0.0
2018-Apr-16 23:29N 29°45' W 095°06'0 0.0
2018-Apr-16 23:01N 29°45' W 095°06'0 0.0
2018-Apr-16 22:30N 29°45' W 095°06'0 0.0
2018-Apr-16 22:01N 29°45' W 095°06'0 0.0
2018-Apr-16 21:30N 29°45' W 095°06'0 0.0
2018-Apr-16 20:58N 29°45' W 095°06'0 0.0
2018-Apr-16 15:41N 29°45' W 095°06'0 0.9
2018-Apr-16 15:30N 29°45' W 095°06'0 0.1
2018-Apr-16 12:34N 29°45' W 095°06'0 3.1
2018-Apr-16 12:27N 29°45' W 095°06'2 1.4
2018-Apr-16 10:45N 29°47' W 095°04'0 0.0
2018-Apr-16 09:54N 29°47' W 095°04'1 2.4
2018-Apr-16 09:30N 29°46' W 095°05'1 0.0
2018-Apr-15 10:23N 29°46' W 095°06'0 0.0
2018-Apr-15 09:52N 29°46' W 095°06'0 0.0
2018-Apr-15 01:57N 29°46' W 095°05'1 1.6
2018-Apr-15 01:16N 29°47' W 095°05'1 3.9
2018-Apr-15 01:00N 29°46' W 095°05'3 5.5
2018-Apr-15 00:30N 29°44' W 095°02'2 4.8
2018-Apr-15 00:00N 29°42' W 095°00'3 5.4
2018-Apr-14 23:30N 29°40' W 094°58'2 4.6
2018-Apr-14 23:00N 29°38' W 094°58'2 3.9
2018-Apr-14 22:30N 29°37' W 094°60'2 3.4
2018-Apr-14 22:00N 29°37' W 095°01'0 0.0
2018-Apr-14 21:30N 29°37' W 095°01'0 0.1
2018-Apr-14 21:00N 29°37' W 095°01'0 0.3
2018-Apr-14 20:30N 29°37' W 095°02'0 0.0
2018-Apr-14 20:00N 29°37' W 095°02'0 0.0
2018-Apr-14 19:30N 29°37' W 095°02'0 0.0
2018-Apr-14 19:00N 29°37' W 095°02'0 0.0
2018-Apr-14 18:30N 29°37' W 095°02'0 0.0
2018-Apr-14 18:00N 29°37' W 095°02'0 0.0
2018-Apr-14 17:30N 29°37' W 095°02'0 0.1
2018-Apr-14 16:59N 29°37' W 095°01'0 0.1
2018-Apr-14 16:30N 29°37' W 095°01'0 0.1
2018-Apr-14 16:00N 29°37' W 095°02'0 0.0
2018-Apr-14 15:30N 29°37' W 095°02'0 0.0
2018-Apr-14 15:00N 29°37' W 095°02'0 0.0
2018-Apr-14 14:30N 29°37' W 095°02'0 0.0
2018-Apr-14 14:00N 29°37' W 095°02'0 0.0
2018-Apr-14 13:30N 29°37' W 095°02'0 0.0
2018-Apr-14 13:00N 29°37' W 095°02'0 0.0
2018-Apr-14 12:30N 29°37' W 095°02'0 0.0
2018-Apr-14 12:00N 29°37' W 095°02'0 0.0
2018-Apr-14 11:30N 29°37' W 095°02'0 0.0
2018-Apr-14 11:00N 29°37' W 095°02'0 0.0
2018-Apr-14 10:30N 29°37' W 095°02'0 0.0
2018-Apr-14 10:00N 29°37' W 095°02'0 0.0
2018-Apr-14 09:30N 29°37' W 095°02'0 0.0
2018-Apr-14 09:00N 29°37' W 095°02'0 0.0
2018-Apr-14 08:30N 29°37' W 095°02'0 0.0
2018-Apr-14 08:00N 29°37' W 095°02'0 0.0
2018-Apr-14 07:30N 29°37' W 095°02'0 0.0
2018-Apr-14 07:00N 29°37' W 095°02'0 0.0
2018-Apr-14 06:30N 29°37' W 095°02'0 0.0
2018-Apr-14 06:00N 29°37' W 095°02'0 0.0
2018-Apr-14 05:30N 29°37' W 095°02'0 0.0
2018-Apr-14 05:00N 29°37' W 095°02'0 0.0
2018-Apr-14 04:30N 29°37' W 095°02'0 0.0
2018-Apr-14 04:00N 29°37' W 095°02'0 0.0
2018-Apr-14 03:30N 29°37' W 095°02'0 0.0
2018-Apr-14 03:00N 29°37' W 095°02'0 0.0
2018-Apr-14 02:30N 29°37' W 095°02'0 0.0
2018-Apr-14 02:00N 29°37' W 095°02'0 0.0
2018-Apr-14 01:30N 29°37' W 095°02'0 0.0
2018-Apr-14 01:00N 29°37' W 095°02'0 0.0
2018-Apr-14 00:30N 29°37' W 095°02'0 0.0
2018-Apr-14 00:00N 29°37' W 095°02'0 0.0
2018-Apr-13 23:30N 29°37' W 095°02'0 0.0
2018-Apr-13 23:00N 29°37' W 095°02'0 0.0
2018-Apr-13 22:30N 29°37' W 095°02'0 0.0
2018-Apr-13 22:00N 29°37' W 095°02'0 0.0
2018-Apr-13 21:30N 29°37' W 095°02'0 0.0
2018-Apr-13 21:00N 29°37' W 095°02'0 0.0
2018-Apr-13 20:30N 29°37' W 095°02'0 0.0
2018-Apr-13 20:00N 29°37' W 095°02'0 0.0
2018-Apr-13 19:30N 29°37' W 095°02'0 0.0
2018-Apr-13 19:00N 29°37' W 095°02'0 0.0
2018-Apr-13 18:30N 29°37' W 095°02'0 0.0
2018-Apr-13 18:00N 29°37' W 095°02'0 0.0
2018-Apr-13 17:30N 29°37' W 095°02'0 0.0
2018-Apr-13 17:00N 29°37' W 095°02'0 0.0
2018-Apr-13 16:30N 29°37' W 095°02'0 0.0
2018-Apr-13 16:00N 29°37' W 095°02'0 0.0
2018-Apr-13 15:30N 29°37' W 095°02'0 0.0
2018-Apr-13 15:00N 29°37' W 095°02'0 0.0
2018-Apr-13 14:30N 29°37' W 095°02'0 0.0
2018-Apr-13 14:00N 29°37' W 095°02'0 0.0
2018-Apr-13 13:30N 29°37' W 095°02'0 0.0
2018-Apr-13 13:00N 29°37' W 095°02'0 0.0
2018-Apr-13 12:30N 29°37' W 095°02'0 0.0
2018-Apr-13 12:00N 29°37' W 095°02'0 0.0
2018-Apr-13 11:30N 29°37' W 095°02'0 0.0
2018-Apr-13 11:00N 29°37' W 095°02'0 0.0
2018-Apr-13 10:30N 29°37' W 095°02'0 0.0
2018-Apr-13 10:00N 29°37' W 095°02'0 0.3
2018-Apr-13 09:30N 29°37' W 095°01'0 0.3
2018-Apr-13 09:00N 29°37' W 095°01'0 0.1
2018-Apr-13 08:30N 29°37' W 095°02'0 0.0
2018-Apr-13 08:00N 29°37' W 095°02'0 0.0
2018-Apr-13 07:30N 29°37' W 095°02'0 0.0
2018-Apr-13 07:00N 29°37' W 095°02'0 0.0
2018-Apr-13 06:30N 29°37' W 095°02'0 0.0
2018-Apr-13 06:00N 29°37' W 095°02'0 0.1
2018-Apr-13 05:29N 29°37' W 095°01'0 0.1
2018-Apr-13 05:00N 29°37' W 095°01'0 0.2
2018-Apr-13 04:30N 29°37' W 095°01'0 0.2
2018-Apr-13 04:00N 29°37' W 095°01'0 0.0
2018-Apr-13 03:30N 29°37' W 095°01'0 0.0
2018-Apr-13 03:00N 29°37' W 095°01'0 0.0
2018-Apr-13 02:30N 29°37' W 095°01'0 0.0
2018-Apr-13 02:00N 29°37' W 095°01'0 0.0
2018-Apr-13 01:30N 29°37' W 095°01'0 0.0
2018-Apr-13 01:00N 29°37' W 095°01'0 0.0
2018-Apr-13 00:30N 29°37' W 095°01'0 0.0
2018-Apr-13 00:00N 29°37' W 095°01'0 0.0
2018-Apr-12 23:30N 29°37' W 095°01'0 0.0
2018-Apr-12 23:00N 29°37' W 095°01'0 0.0
2018-Apr-12 22:30N 29°37' W 095°01'0 0.0
2018-Apr-12 22:00N 29°37' W 095°01'0 0.0
2018-Apr-12 21:30N 29°37' W 095°01'0 0.0
2018-Apr-12 21:00N 29°37' W 095°01'0 0.0
2018-Apr-12 20:30N 29°37' W 095°01'0 0.0
2018-Apr-12 20:00N 29°37' W 095°01'0 0.0
2018-Apr-12 19:30N 29°37' W 095°01'0 0.0
2018-Apr-12 19:00N 29°37' W 095°01'0 0.0
2018-Apr-12 18:30N 29°37' W 095°01'0 0.0
2018-Apr-12 18:00N 29°37' W 095°01'0 0.0
2018-Apr-12 17:30N 29°37' W 095°01'0 0.0
2018-Apr-12 17:00N 29°37' W 095°01'0 0.0
2018-Apr-12 16:30N 29°37' W 095°01'0 0.0
2018-Apr-12 16:00N 29°37' W 095°01'0 0.0
2018-Apr-12 15:30N 29°37' W 095°01'0 0.0
2018-Apr-12 15:00N 29°37' W 095°01'0 0.0
2018-Apr-12 14:30N 29°37' W 095°01'0 0.0
2018-Apr-12 14:00N 29°37' W 095°01'0 0.0
2018-Apr-12 13:30N 29°37' W 095°01'0 0.0
2018-Apr-12 13:00N 29°37' W 095°01'0 0.0
2018-Apr-12 12:30N 29°37' W 095°01'0 0.0
2018-Apr-12 12:00N 29°37' W 095°01'0 0.0
2018-Apr-12 11:30N 29°37' W 095°01'0 0.0
2018-Apr-12 11:00N 29°37' W 095°01'0 0.0
2018-Apr-12 10:30N 29°37' W 095°01'0 0.4
2018-Apr-12 10:00N 29°37' W 095°01'0 0.6
2018-Apr-12 09:30N 29°37' W 095°01'0 0.2
2018-Apr-12 09:00N 29°36' W 095°01'0 0.8
2018-Apr-12 08:30N 29°37' W 095°01'0 0.0
2018-Apr-12 08:00N 29°37' W 095°02'0 0.0
2018-Apr-12 07:30N 29°37' W 095°01'0 0.0
2018-Apr-12 07:00N 29°37' W 095°01'0 0.0
2018-Apr-12 06:30N 29°37' W 095°02'0 0.0
2018-Apr-12 06:00N 29°37' W 095°02'0 0.0
2018-Apr-12 05:30N 29°37' W 095°01'0 0.0
2018-Apr-12 05:00N 29°37' W 095°01'0 0.0
2018-Apr-12 04:30N 29°37' W 095°01'0 0.0
2018-Apr-12 04:00N 29°37' W 095°01'0 0.0
2018-Apr-12 03:30N 29°37' W 095°01'0 0.2
2018-Apr-12 03:00N 29°37' W 095°01'0 0.4
2018-Apr-12 02:30N 29°37' W 095°01'2 4.7
2018-Apr-12 02:00N 29°37' W 094°59'3 5.7
2018-Apr-12 01:30N 29°40' W 094°58'3 6.1
2018-Apr-12 01:00N 29°42' W 095°01'2 4.8
2018-Apr-12 00:30N 29°44' W 095°03'3 5.2
2018-Apr-12 00:00N 29°46' W 095°05'2 2.2
2018-Apr-11 23:18N 29°47' W 095°04'1 1.9
2018-Apr-11 23:00N 29°47' W 095°05'0 0.0
2018-Apr-11 22:30N 29°47' W 095°05'0 0.0
2018-Apr-11 22:00N 29°47' W 095°05'1 1.6
2018-Apr-11 21:30N 29°46' W 095°05'1 1.9
2018-Apr-11 20:56N 29°45' W 095°06'1 3.3
2018-Apr-11 20:30N 29°47' W 095°05'0 0.7
2018-Apr-11 20:00N 29°47' W 095°04'0 0.2
2018-Apr-11 19:30N 29°47' W 095°05'0 0.0
2018-Apr-11 19:00N 29°47' W 095°05'0 0.0
2018-Apr-11 18:30N 29°47' W 095°05'0 0.2
2018-Apr-11 18:00N 29°47' W 095°04'0 0.1
2018-Apr-11 17:30N 29°47' W 095°04'0 0.0
2018-Apr-11 17:00N 29°47' W 095°04'0 0.0
2018-Apr-11 16:30N 29°47' W 095°04'0 0.1
2018-Apr-11 16:00N 29°47' W 095°04'0 0.0
2018-Apr-11 15:31N 29°47' W 095°04'0 0.0
2018-Apr-11 15:00N 29°47' W 095°04'0 0.0
2018-Apr-11 14:30N 29°47' W 095°04'0 0.0
2018-Apr-11 13:59N 29°47' W 095°04'0 0.0
2018-Apr-11 13:30N 29°47' W 095°04'0 0.0
2018-Apr-11 12:59N 29°47' W 095°04'  

Dump ship's entire track history